createdAt,value
2019-02-23T00:00:27.591Z,50.73
2019-02-23T00:04:34.207Z,51.07
2019-02-23T00:08:39.220Z,54.53
2019-02-23T00:12:44.351Z,53.50
2019-02-23T00:16:49.362Z,53.87
2019-02-23T00:20:54.360Z,54.13
2019-02-23T00:24:59.381Z,45.80
2019-02-23T00:29:04.393Z,45.90
2019-02-23T00:33:09.402Z,45.13
2019-02-23T00:37:14.415Z,49.87
2019-02-23T00:41:19.407Z,48.10
2019-02-23T00:45:24.423Z,52.30
2019-02-23T00:49:36.183Z,53.83
2019-02-23T00:53:36.071Z,42.97
2019-02-23T00:57:41.187Z,40.87
2019-02-23T01:01:46.178Z,39.33
2019-02-23T01:05:51.188Z,39.23
2019-02-23T01:09:56.202Z,42.10
2019-02-23T01:14:01.218Z,40.80
2019-02-23T01:18:06.366Z,41.63
2019-02-23T01:22:11.457Z,46.37
2019-02-23T01:26:16.463Z,43.17
2019-02-23T01:30:21.640Z,45.33
2019-02-23T01:34:26.684Z,42.33
2019-02-23T01:38:31.729Z,50.77
2019-02-23T01:42:36.769Z,43.20
2019-02-23T01:46:41.755Z,42.53
2019-02-23T01:50:46.768Z,46.87
2019-02-23T01:54:51.781Z,44.17
2019-02-23T01:58:56.790Z,40.77
2019-02-23T02:03:01.811Z,47.97
2019-02-23T02:07:07.014Z,39.17
2019-02-23T02:11:13.403Z,38.30
2019-02-23T02:15:18.687Z,39.60
2019-02-23T02:19:23.726Z,41.10
2019-02-23T02:23:28.735Z,37.20
2019-02-23T02:27:33.776Z,39.03
2019-02-23T02:31:38.792Z,41.00
2019-02-23T02:35:43.803Z,41.63
2019-02-23T02:39:48.811Z,44.43
2019-02-23T02:43:53.829Z,41.63
2019-02-23T02:47:58.836Z,49.57
2019-02-23T02:52:03.825Z,42.93
2019-02-23T02:56:08.835Z,41.50
2019-02-23T03:00:14.268Z,44.20
2019-02-23T03:04:19.344Z,42.20
2019-02-23T03:08:24.361Z,43.07
2019-02-23T03:12:29.367Z,41.03
2019-02-23T03:16:34.374Z,40.97
2019-02-23T03:20:39.391Z,39.43
2019-02-23T03:24:44.403Z,34.77
2019-02-23T03:28:49.421Z,42.13
2019-02-23T03:32:54.414Z,34.97
2019-02-23T03:36:59.440Z,35.20
2019-02-23T03:41:05.843Z,30.23
2019-02-23T03:45:10.859Z,37.60
2019-02-23T03:49:15.874Z,27.83
2019-02-23T03:53:21.923Z,33.43
2019-02-23T03:57:26.983Z,28.63
2019-02-23T04:01:32.968Z,32.03
2019-02-23T04:05:37.979Z,28.67
2019-02-23T04:09:42.999Z,28.30
2019-02-23T04:13:48.043Z,31.40
2019-02-23T04:17:53.090Z,31.47
2019-02-23T04:21:58.111Z,25.07
2019-02-23T04:26:03.115Z,29.43
2019-02-23T04:30:09.096Z,33.90
2019-02-23T04:34:14.115Z,25.27
2019-02-23T04:38:19.107Z,23.20
2019-02-23T04:42:24.129Z,23.40
2019-02-23T04:46:29.223Z,24.53
2019-02-23T04:50:34.237Z,29.27
2019-02-23T04:54:40.315Z,27.50
2019-02-23T04:58:45.315Z,21.00
2019-02-23T05:02:50.317Z,22.83
2019-02-23T05:06:55.316Z,18.30
2019-02-23T05:11:00.331Z,25.77
2019-02-23T05:15:07.684Z,25.87
2019-02-23T05:19:12.696Z,21.40
2019-02-23T05:23:17.776Z,28.80
2019-02-23T05:27:22.787Z,29.60
2019-02-23T05:31:27.801Z,30.77
2019-02-23T05:35:32.814Z,26.70
2019-02-23T05:39:37.819Z,25.87
2019-02-23T05:43:42.811Z,27.70
2019-02-23T05:47:47.871Z,24.50
2019-02-23T05:51:52.891Z,25.40
2019-02-23T05:55:57.899Z,28.03
2019-02-23T06:00:02.909Z,28.00
2019-02-23T06:04:07.908Z,28.87
2019-02-23T06:08:13.290Z,23.17
2019-02-23T06:12:18.667Z,24.17
2019-02-23T06:16:23.695Z,23.13
2019-02-23T06:20:28.716Z,24.23
2019-02-23T06:24:33.736Z,24.80
2019-02-23T06:28:38.799Z,27.77
2019-02-23T06:32:43.811Z,24.27
2019-02-23T06:36:48.888Z,19.87
2019-02-23T06:40:53.896Z,22.73
2019-02-23T06:44:58.904Z,19.60
2019-02-23T06:49:03.901Z,18.97
2019-02-23T06:53:08.898Z,21.57
2019-02-23T06:57:15.064Z,19.13
2019-02-23T07:01:20.063Z,25.47
2019-02-23T07:05:25.140Z,19.87
2019-02-23T07:09:30.113Z,17.73
2019-02-23T07:13:35.111Z,17.30
2019-02-23T07:17:40.116Z,16.63
2019-02-23T07:21:45.683Z,16.43
2019-02-23T07:25:50.736Z,18.47
2019-02-23T07:29:57.356Z,22.33
2019-02-23T07:34:02.366Z,19.87
2019-02-23T07:38:07.371Z,17.30
2019-02-23T07:42:12.359Z,19.17
2019-02-23T07:46:17.639Z,18.87
2019-02-23T07:50:22.915Z,18.80
2019-02-23T07:54:28.166Z,17.33
2019-02-23T07:58:33.520Z,20.87
2019-02-23T08:02:38.869Z,17.87
2019-02-23T08:06:44.175Z,17.20
2019-02-23T08:10:49.453Z,19.17
2019-02-23T08:14:54.943Z,19.30
2019-02-23T08:19:00.244Z,21.37
2019-02-23T08:23:05.523Z,18.23
2019-02-23T08:27:11.079Z,19.80
2019-02-23T08:31:17.331Z,19.53
2019-02-23T08:35:22.599Z,20.87
2019-02-23T08:39:27.888Z,17.43
2019-02-23T08:43:33.170Z,19.10
2019-02-23T08:47:38.554Z,18.57
2019-02-23T08:51:43.835Z,18.27
2019-02-23T08:55:49.136Z,16.67
2019-02-23T08:59:54.407Z,16.73
2019-02-23T09:03:59.755Z,18.30
2019-02-23T09:08:05.218Z,18.10
2019-02-23T09:12:10.492Z,18.50
2019-02-23T09:16:16.095Z,16.10
2019-02-23T09:20:29.258Z,19.27
2019-02-23T09:24:29.295Z,17.70
2019-02-23T09:28:34.699Z,15.33
2019-02-23T09:32:39.977Z,18.10
2019-02-23T09:36:46.270Z,20.60
2019-02-23T09:40:51.800Z,14.20
2019-02-23T09:44:57.845Z,14.80
2019-02-23T09:49:03.586Z,16.07
2019-02-23T09:53:11.532Z,15.77
2019-02-23T09:57:15.972Z,17.57
2019-02-23T10:01:21.260Z,12.53
2019-02-23T10:05:26.608Z,14.57
2019-02-23T10:09:34.106Z,16.63
2019-02-23T10:13:41.275Z,13.33
2019-02-23T10:17:47.641Z,13.23
2019-02-23T10:21:54.109Z,15.97
2019-02-23T10:25:59.521Z,15.97
2019-02-23T10:30:08.356Z,13.73
2019-02-23T10:34:13.646Z,12.03
2019-02-23T10:38:18.930Z,13.20
2019-02-23T10:42:24.233Z,12.57
2019-02-23T10:46:29.515Z,13.63
2019-02-23T10:50:34.851Z,16.50
2019-02-23T10:54:40.313Z,13.43
2019-02-23T10:58:45.663Z,19.10
2019-02-23T11:02:51.133Z,12.03
2019-02-23T11:06:56.412Z,11.27
2019-02-23T11:11:01.919Z,13.43
2019-02-23T11:15:12.571Z,12.40
2019-02-23T11:19:17.944Z,16.57
2019-02-23T11:23:23.323Z,12.00
2019-02-23T11:27:29.671Z,15.20
2019-02-23T11:31:34.939Z,12.97
2019-02-23T11:35:40.232Z,13.30
2019-02-23T11:39:45.558Z,13.57
2019-02-23T11:43:50.861Z,11.90
2019-02-23T11:47:56.150Z,12.07
2019-02-23T11:52:01.464Z,12.30
2019-02-23T11:56:06.755Z,13.43
2019-02-23T12:00:14.155Z,10.73
2019-02-23T12:04:19.443Z,9.20
2019-02-23T12:08:25.347Z,10.27
2019-02-23T12:12:30.808Z,9.60
2019-02-23T12:16:36.079Z,9.30
2019-02-23T12:20:41.361Z,10.50
2019-02-23T12:24:46.653Z,10.23
2019-02-23T12:28:51.959Z,11.73
2019-02-23T12:32:57.235Z,10.73
2019-02-23T12:37:02.529Z,9.90
2019-02-23T12:41:07.804Z,14.63
2019-02-23T12:45:13.971Z,10.57
2019-02-23T12:49:19.255Z,14.77
2019-02-23T12:53:24.531Z,12.63
2019-02-23T12:57:29.791Z,11.20
2019-02-23T13:01:35.099Z,9.03
2019-02-23T13:05:40.383Z,10.30
2019-02-23T13:09:46.120Z,12.20
2019-02-23T13:14:03.443Z,8.40
2019-02-23T13:18:22.935Z,9.95
2019-02-23T13:22:36.780Z,8.90
2019-02-23T13:27:01.848Z,8.63
2019-02-23T13:31:15.891Z,7.67
2019-02-23T13:35:39.207Z,10.17
2019-02-23T13:40:02.716Z,8.47
2019-02-23T13:44:22.966Z,6.20
2019-02-23T13:48:45.005Z,7.10
2019-02-23T13:53:02.054Z,10.10
2019-02-23T13:57:12.923Z,7.13
2019-02-23T14:01:24.003Z,8.27
2019-02-23T14:05:44.109Z,9.27
2019-02-23T14:09:52.185Z,10.10
2019-02-23T14:14:30.045Z,6.97
2019-02-23T14:18:47.095Z,9.40
2019-02-23T14:22:58.321Z,8.37
2019-02-23T14:27:09.490Z,6.77
2019-02-23T14:31:41.184Z,8.77
2019-02-23T14:35:49.427Z,10.80
2019-02-23T14:40:06.408Z,13.00
2019-02-23T14:44:20.223Z,11.27
2019-02-23T14:48:34.277Z,8.83
2019-02-23T14:52:53.991Z,12.43
2019-02-23T14:57:26.006Z,9.27
2019-02-23T15:01:51.247Z,10.97
2019-02-23T15:06:31.288Z,10.90
2019-02-23T15:10:56.015Z,10.10
2019-02-23T15:15:10.200Z,13.70
2019-02-23T15:19:21.131Z,11.23
2019-02-23T15:23:44.171Z,10.17
2019-02-23T15:28:26.754Z,11.20
2019-02-23T15:32:59.392Z,12.60
2019-02-23T15:37:13.087Z,10.80
2019-02-23T15:41:50.027Z,12.30
2019-02-23T15:46:28.067Z,17.37
2019-02-23T15:50:33.030Z,12.57
2019-02-23T15:54:38.024Z,13.43
2019-02-23T15:58:43.040Z,18.43
2019-02-23T16:02:48.091Z,13.87
2019-02-23T16:06:53.167Z,15.30
2019-02-23T16:10:58.223Z,14.47
2019-02-23T16:15:03.295Z,10.97
2019-02-23T16:19:08.747Z,15.90
2019-02-23T16:23:13.756Z,42.97
2019-02-23T16:27:18.765Z,37.17
2019-02-23T16:31:23.779Z,16.47
2019-02-23T16:35:28.777Z,16.27
2019-02-23T16:39:33.749Z,18.87
2019-02-23T16:43:38.759Z,16.43
2019-02-23T16:47:43.756Z,19.83
2019-02-23T16:51:48.775Z,18.43
2019-02-23T16:55:53.766Z,16.27
2019-02-23T16:59:58.756Z,15.97
2019-02-23T17:04:03.759Z,17.77
2019-02-23T17:08:08.754Z,17.63
2019-02-23T17:12:15.495Z,17.93
2019-02-23T17:16:20.490Z,15.17
2019-02-23T17:20:25.731Z,21.13
2019-02-23T17:24:30.771Z,18.17
2019-02-23T17:28:35.771Z,20.30
2019-02-23T17:32:41.039Z,16.67
2019-02-23T17:36:46.074Z,15.57
2019-02-23T17:40:51.075Z,22.97
2019-02-23T17:44:56.067Z,20.57
2019-02-23T17:49:01.072Z,17.23
2019-02-23T17:53:06.187Z,15.30
2019-02-23T17:57:12.201Z,17.23
2019-02-23T18:01:17.395Z,16.57
2019-02-23T18:05:22.399Z,17.17
2019-02-23T18:09:27.415Z,20.60
2019-02-23T18:13:34.167Z,17.07
2019-02-23T18:17:39.179Z,26.60
2019-02-23T18:21:46.250Z,25.23
2019-02-23T18:25:51.287Z,20.93
2019-02-23T18:29:56.356Z,18.20
2019-02-23T18:34:02.572Z,16.73
2019-02-23T18:38:07.630Z,19.83
2019-02-23T18:42:12.684Z,14.80
2019-02-23T18:46:18.697Z,18.70
2019-02-23T18:50:24.842Z,19.30
2019-02-23T18:54:29.912Z,17.57
2019-02-23T18:58:35.109Z,18.07
2019-02-23T19:02:40.423Z,22.13
2019-02-23T19:06:45.785Z,22.30
2019-02-23T19:10:50.799Z,31.67
2019-02-23T19:14:55.842Z,20.90
2019-02-23T19:19:00.877Z,25.10
2019-02-23T19:23:07.127Z,21.63
2019-02-23T19:27:12.169Z,20.27
2019-02-23T19:31:17.221Z,84.47
2019-02-23T19:35:22.505Z,25.73
2019-02-23T19:39:27.847Z,21.97
2019-02-23T19:43:33.173Z,21.63
2019-02-23T19:47:39.591Z,20.67
2019-02-23T19:51:44.579Z,24.90
2019-02-23T19:55:49.588Z,23.43
2019-02-23T19:59:54.595Z,23.70
2019-02-23T20:03:59.675Z,21.17
2019-02-23T20:08:04.928Z,24.30
2019-02-23T20:12:09.935Z,20.50
2019-02-23T20:16:14.919Z,23.93
2019-02-23T20:20:19.917Z,25.47
2019-02-23T20:24:25.128Z,20.27
2019-02-23T20:28:31.108Z,23.20
2019-02-23T20:32:36.575Z,25.03
2019-02-23T20:36:41.561Z,23.97
2019-02-23T20:40:46.606Z,26.27
2019-02-23T20:44:51.634Z,27.87
2019-02-23T20:48:56.626Z,28.80
2019-02-23T20:53:01.638Z,18.03
2019-02-23T20:57:13.689Z,23.20
2019-02-23T21:01:13.252Z,20.80
2019-02-23T21:05:20.123Z,24.23
2019-02-23T21:09:26.439Z,23.30
2019-02-23T21:13:31.531Z,22.70
2019-02-23T21:17:37.613Z,22.07
2019-02-23T21:21:42.767Z,26.10
2019-02-23T21:25:47.835Z,22.27
2019-02-23T21:29:53.821Z,26.37
2019-02-23T21:33:59.084Z,24.83
2019-02-23T21:38:04.102Z,31.57
2019-02-23T21:42:09.098Z,22.57
2019-02-23T21:46:14.118Z,27.70
2019-02-23T21:50:19.137Z,25.27
2019-02-23T21:54:24.216Z,24.83
2019-02-23T21:58:29.328Z,27.57
2019-02-23T22:02:34.329Z,25.47
2019-02-23T22:06:39.408Z,26.97
2019-02-23T22:10:44.423Z,24.83
2019-02-23T22:14:49.438Z,30.53
2019-02-23T22:18:54.441Z,29.87
2019-02-23T22:22:59.436Z,22.70
2019-02-23T22:27:04.451Z,26.50
2019-02-23T22:31:09.469Z,28.47
2019-02-23T22:35:14.528Z,24.27
2019-02-23T22:39:19.595Z,23.03
2019-02-23T22:43:24.603Z,24.67
2019-02-23T22:47:29.595Z,22.20
2019-02-23T22:51:34.611Z,23.37
2019-02-23T22:55:39.640Z,25.97
2019-02-23T22:59:44.655Z,27.43
2019-02-23T23:03:49.669Z,25.73
2019-02-23T23:07:55.407Z,27.80
2019-02-23T23:12:00.448Z,30.03
2019-02-23T23:16:05.459Z,30.67
2019-02-23T23:20:10.615Z,27.20
2019-02-23T23:24:15.623Z,29.70
2019-02-23T23:28:20.615Z,27.67
2019-02-23T23:32:26.706Z,29.13
2019-02-23T23:36:31.718Z,25.17
2019-02-23T23:40:36.727Z,32.37
2019-02-23T23:44:41.745Z,24.80
2019-02-23T23:48:46.757Z,24.50
2019-02-23T23:52:51.775Z,29.77
2019-02-23T23:56:56.807Z,29.20
